sensor_id;sensor_type;location;lat;lon;timestamp;temperature;humidity
24162;DHT22;12318;51.262;7.066;2023-06-19T00:02:12;22.00;56.60
24162;DHT22;12318;51.262;7.066;2023-06-19T00:04:38;21.90;57.10
24162;DHT22;12318;51.262;7.066;2023-06-19T00:07:04;21.90;57.60
24162;DHT22;12318;51.262;7.066;2023-06-19T00:09:31;21.90;58.00
24162;DHT22;12318;51.262;7.066;2023-06-19T00:12:00;21.80;58.50
24162;DHT22;12318;51.262;7.066;2023-06-19T00:14:27;21.80;59.20
24162;DHT22;12318;51.262;7.066;2023-06-19T00:16:52;21.70;59.60
24162;DHT22;12318;51.262;7.066;2023-06-19T00:19:32;21.70;60.00
24162;DHT22;12318;51.262;7.066;2023-06-19T00:22:17;21.60;61.30
24162;DHT22;12318;51.262;7.066;2023-06-19T00:27:49;21.50;62.20
24162;DHT22;12318;51.262;7.066;2023-06-19T00:30:22;21.30;63.90
24162;DHT22;12318;51.262;7.066;2023-06-19T00:32:48;21.40;64.80
24162;DHT22;12318;51.262;7.066;2023-06-19T00:35:18;21.30;65.60
24162;DHT22;12318;51.262;7.066;2023-06-19T00:37:44;21.20;67.20
24162;DHT22;12318;51.262;7.066;2023-06-19T00:40:26;21.10;68.30
24162;DHT22;12318;51.262;7.066;2023-06-19T00:42:52;21.10;69.10
24162;DHT22;12318;51.262;7.066;2023-06-19T00:45:17;21.20;69.10
24162;DHT22;12318;51.262;7.066;2023-06-19T00:47:46;21.20;69.00
24162;DHT22;12318;51.262;7.066;2023-06-19T00:50:12;21.20;68.80
24162;DHT22;12318;51.262;7.066;2023-06-19T00:52:39;21.10;68.70
24162;DHT22;12318;51.262;7.066;2023-06-19T00:55:05;21.20;68.20
24162;DHT22;12318;51.262;7.066;2023-06-19T00:57:33;21.10;68.00
24162;DHT22;12318;51.262;7.066;2023-06-19T00:59:58;21.10;68.40
24162;DHT22;12318;51.262;7.066;2023-06-19T01:02:25;21.10;67.90
24162;DHT22;12318;51.262;7.066;2023-06-19T01:04:51;21.30;67.50
24162;DHT22;12318;51.262;7.066;2023-06-19T01:07:29;21.20;67.10
24162;DHT22;12318;51.262;7.066;2023-06-19T01:10:02;21.30;67.00
24162;DHT22;12318;51.262;7.066;2023-06-19T01:12:44;21.40;64.80
24162;DHT22;12318;51.262;7.066;2023-06-19T01:15:16;21.30;65.00
24162;DHT22;12318;51.262;7.066;2023-06-19T01:17:46;21.30;64.80
24162;DHT22;12318;51.262;7.066;2023-06-19T01:20:13;21.50;63.80
24162;DHT22;12318;51.262;7.066;2023-06-19T01:22:40;21.40;63.30
24162;DHT22;12318;51.262;7.066;2023-06-19T01:25:09;21.50;62.80
24162;DHT22;12318;51.262;7.066;2023-06-19T01:27:36;21.50;62.00
24162;DHT22;12318;51.262;7.066;2023-06-19T01:30:03;21.50;61.90
24162;DHT22;12318;51.262;7.066;2023-06-19T01:33:00;21.50;62.10
24162;DHT22;12318;51.262;7.066;2023-06-19T01:35:35;21.50;61.00
24162;DHT22;12318;51.262;7.066;2023-06-19T01:38:02;21.60;60.00
24162;DHT22;12318;51.262;7.066;2023-06-19T01:40:29;21.70;58.60
24162;DHT22;12318;51.262;7.066;2023-06-19T01:42:58;21.70;58.70
24162;DHT22;12318;51.262;7.066;2023-06-19T01:45:28;21.80;58.10
24162;DHT22;12318;51.262;7.066;2023-06-19T01:47:55;21.90;57.10
24162;DHT22;12318;51.262;7.066;2023-06-19T01:50:22;21.80;56.60
24162;DHT22;12318;51.262;7.066;2023-06-19T01:52:51;21.80;57.30
24162;DHT22;12318;51.262;7.066;2023-06-19T01:55:20;21.70;56.90
24162;DHT22;12318;51.262;7.066;2023-06-19T01:57:46;21.70;57.30
24162;DHT22;12318;51.262;7.066;2023-06-19T02:00:12;21.60;57.40
24162;DHT22;12318;51.262;7.066;2023-06-19T02:02:38;21.60;57.60
24162;DHT22;12318;51.262;7.066;2023-06-19T02:05:04;21.50;57.60
24162;DHT22;12318;51.262;7.066;2023-06-19T02:07:30;21.50;57.40
24162;DHT22;12318;51.262;7.066;2023-06-19T02:09:59;21.50;57.40
24162;DHT22;12318;51.262;7.066;2023-06-19T02:12:25;21.50;57.90
24162;DHT22;12318;51.262;7.066;2023-06-19T02:14:50;21.50;57.80
24162;DHT22;12318;51.262;7.066;2023-06-19T02:17:16;21.50;57.60
24162;DHT22;12318;51.262;7.066;2023-06-19T02:19:42;21.50;57.70
24162;DHT22;12318;51.262;7.066;2023-06-19T02:22:08;21.50;57.80
24162;DHT22;12318;51.262;7.066;2023-06-19T02:24:34;21.50;57.60
24162;DHT22;12318;51.262;7.066;2023-06-19T02:27:00;21.50;57.70
24162;DHT22;12318;51.262;7.066;2023-06-19T02:29:27;21.50;57.80
24162;DHT22;12318;51.262;7.066;2023-06-19T02:31:55;21.60;57.40
24162;DHT22;12318;51.262;7.066;2023-06-19T02:34:21;21.60;57.40
24162;DHT22;12318;51.262;7.066;2023-06-19T02:36:50;21.60;56.50
24162;DHT22;12318;51.262;7.066;2023-06-19T02:39:15;21.70;56.30
24162;DHT22;12318;51.262;7.066;2023-06-19T02:41:41;21.70;56.00
24162;DHT22;12318;51.262;7.066;2023-06-19T02:44:12;21.80;55.60
24162;DHT22;12318;51.262;7.066;2023-06-19T02:46:39;21.90;55.00
24162;DHT22;12318;51.262;7.066;2023-06-19T02:49:05;21.90;54.80
24162;DHT22;12318;51.262;7.066;2023-06-19T02:51:31;21.90;55.10
24162;DHT22;12318;51.262;7.066;2023-06-19T02:53:57;22.00;55.50
24162;DHT22;12318;51.262;7.066;2023-06-19T02:56:25;21.90;56.20
24162;DHT22;12318;51.262;7.066;2023-06-19T02:58:51;21.80;57.30
24162;DHT22;12318;51.262;7.066;2023-06-19T03:01:17;21.90;57.70
24162;DHT22;12318;51.262;7.066;2023-06-19T03:03:43;21.80;58.20
24162;DHT22;12318;51.262;7.066;2023-06-19T03:06:12;21.70;59.00
24162;DHT22;12318;51.262;7.066;2023-06-19T03:08:39;21.80;59.80
24162;DHT22;12318;51.262;7.066;2023-06-19T03:11:05;21.70;60.50
24162;DHT22;12318;51.262;7.066;2023-06-19T03:13:52;21.70;61.30
24162;DHT22;12318;51.262;7.066;2023-06-19T03:16:19;21.60;62.30
24162;DHT22;12318;51.262;7.066;2023-06-19T03:18:45;21.60;62.80
24162;DHT22;12318;51.262;7.066;2023-06-19T03:21:11;21.60;64.00
24162;DHT22;12318;51.262;7.066;2023-06-19T03:23:37;21.40;66.20
24162;DHT22;12318;51.262;7.066;2023-06-19T03:26:03;21.20;68.80
24162;DHT22;12318;51.262;7.066;2023-06-19T03:28:29;21.20;71.00
24162;DHT22;12318;51.262;7.066;2023-06-19T03:30:55;21.00;74.00
24162;DHT22;12318;51.262;7.066;2023-06-19T03:33:20;20.80;77.60
24162;DHT22;12318;51.262;7.066;2023-06-19T03:35:46;20.80;80.00
24162;DHT22;12318;51.262;7.066;2023-06-19T03:38:13;20.70;82.00
24162;DHT22;12318;51.262;7.066;2023-06-19T03:40:39;20.50;84.30
24162;DHT22;12318;51.262;7.066;2023-06-19T03:43:05;20.50;86.80
24162;DHT22;12318;51.262;7.066;2023-06-19T03:45:31;20.40;89.20
24162;DHT22;12318;51.262;7.066;2023-06-19T03:47:57;20.30;91.10
24162;DHT22;12318;51.262;7.066;2023-06-19T03:50:22;20.30;92.10
24162;DHT22;12318;51.262;7.066;2023-06-19T03:52:48;20.20;93.20
24162;DHT22;12318;51.262;7.066;2023-06-19T03:55:14;20.20;94.40
24162;DHT22;12318;51.262;7.066;2023-06-19T03:57:39;20.10;95.40
24162;DHT22;12318;51.262;7.066;2023-06-19T04:00:07;20.10;96.40
24162;DHT22;12318;51.262;7.066;2023-06-19T04:02:33;20.00;97.40
24162;DHT22;12318;51.262;7.066;2023-06-19T04:05:00;20.00;98.40
24162;DHT22;12318;51.262;7.066;2023-06-19T04:07:27;20.00;99.00
24162;DHT22;12318;51.262;7.066;2023-06-19T04:09:52;20.00;99.60
24162;DHT22;12318;51.262;7.066;2023-06-19T04:12:18;20.00;99.90
24162;DHT22;12318;51.262;7.066;2023-06-19T04:14:44;20.00;99.90
24162;DHT22;12318;51.262;7.066;2023-06-19T04:17:10;20.00;99.90
24162;DHT22;12318;51.262;7.066;2023-06-19T04:19:35;20.00;99.90
24162;DHT22;12318;51.262;7.066;2023-06-19T04:22:01;20.00;99.90
24162;DHT22;12318;51.262;7.066;2023-06-19T04:24:27;19.90;99.90
24162;DHT22;12318;51.262;7.066;2023-06-19T04:26:53;19.90;99.90
24162;DHT22;12318;51.262;7.066;2023-06-19T04:29:18;19.90;99.90
24162;DHT22;12318;51.262;7.066;2023-06-19T04:31:44;19.90;99.90
24162;DHT22;12318;51.262;7.066;2023-06-19T04:34:12;19.90;99.90
24162;DHT22;12318;51.262;7.066;2023-06-19T04:36:40;19.90;99.90
24162;DHT22;12318;51.262;7.066;2023-06-19T04:39:06;19.90;99.90
24162;DHT22;12318;51.262;7.066;2023-06-19T04:41:32;20.00;99.90
24162;DHT22;12318;51.262;7.066;2023-06-19T04:43:58;20.00;99.90
24162;DHT22;12318;51.262;7.066;2023-06-19T04:46:24;20.00;99.90
24162;DHT22;12318;51.262;7.066;2023-06-19T04:48:49;19.80;99.90
24162;DHT22;12318;51.262;7.066;2023-06-19T04:51:18;19.70;99.90
24162;DHT22;12318;51.262;7.066;2023-06-19T04:53:47;19.80;99.90
24162;DHT22;12318;51.262;7.066;2023-06-19T04:56:14;19.70;99.90
24162;DHT22;12318;51.262;7.066;2023-06-19T04:58:41;19.70;99.90
24162;DHT22;12318;51.262;7.066;2023-06-19T05:01:15;19.70;99.90
24162;DHT22;12318;51.262;7.066;2023-06-19T05:03:43;19.60;99.90
24162;DHT22;12318;51.262;7.066;2023-06-19T05:06:11;19.60;99.90
24162;DHT22;12318;51.262;7.066;2023-06-19T05:08:37;19.60;99.90
24162;DHT22;12318;51.262;7.066;2023-06-19T05:11:03;19.70;99.90
24162;DHT22;12318;51.262;7.066;2023-06-19T05:13:28;19.80;99.90
24162;DHT22;12318;51.262;7.066;2023-06-19T05:15:54;19.80;99.90
24162;DHT22;12318;51.262;7.066;2023-06-19T05:18:21;19.90;99.90
24162;DHT22;12318;51.262;7.066;2023-06-19T05:20:47;20.00;99.90
24162;DHT22;12318;51.262;7.066;2023-06-19T05:23:13;20.00;99.90
24162;DHT22;12318;51.262;7.066;2023-06-19T05:25:39;20.10;99.90
24162;DHT22;12318;51.262;7.066;2023-06-19T05:28:04;20.20;99.90
24162;DHT22;12318;51.262;7.066;2023-06-19T05:30:30;20.20;99.90
24162;DHT22;12318;51.262;7.066;2023-06-19T05:32:56;20.30;99.90
24162;DHT22;12318;51.262;7.066;2023-06-19T05:35:22;20.20;99.90
24162;DHT22;12318;51.262;7.066;2023-06-19T05:37:48;20.40;99.90
24162;DHT22;12318;51.262;7.066;2023-06-19T05:40:13;20.20;99.90
24162;DHT22;12318;51.262;7.066;2023-06-19T05:42:42;20.00;99.90
24162;DHT22;12318;51.262;7.066;2023-06-19T05:45:08;19.90;99.90
24162;DHT22;12318;51.262;7.066;2023-06-19T05:47:35;20.00;99.90
24162;DHT22;12318;51.262;7.066;2023-06-19T05:50:00;20.10;99.90
24162;DHT22;12318;51.262;7.066;2023-06-19T05:52:26;20.10;99.90
24162;DHT22;12318;51.262;7.066;2023-06-19T05:54:52;20.10;99.90
24162;DHT22;12318;51.262;7.066;2023-06-19T05:57:20;20.10;99.90
24162;DHT22;12318;51.262;7.066;2023-06-19T05:59:48;20.20;99.90
24162;DHT22;12318;51.262;7.066;2023-06-19T06:02:14;20.30;99.90
24162;DHT22;12318;51.262;7.066;2023-06-19T06:04:40;20.20;99.90
24162;DHT22;12318;51.262;7.066;2023-06-19T06:07:06;20.20;99.90
24162;DHT22;12318;51.262;7.066;2023-06-19T06:09:33;20.10;99.90
24162;DHT22;12318;51.262;7.066;2023-06-19T06:11:59;20.20;99.90
24162;DHT22;12318;51.262;7.066;2023-06-19T06:14:26;20.30;99.90
24162;DHT22;12318;51.262;7.066;2023-06-19T06:16:52;20.20;99.90
24162;DHT22;12318;51.262;7.066;2023-06-19T06:19:20;20.30;99.90
24162;DHT22;12318;51.262;7.066;2023-06-19T06:21:46;20.30;99.90
24162;DHT22;12318;51.262;7.066;2023-06-19T06:24:13;20.20;99.90
24162;DHT22;12318;51.262;7.066;2023-06-19T06:26:38;20.20;99.90
24162;DHT22;12318;51.262;7.066;2023-06-19T06:29:04;20.40;99.90
24162;DHT22;12318;51.262;7.066;2023-06-19T06:31:30;20.40;99.90
24162;DHT22;12318;51.262;7.066;2023-06-19T06:33:56;20.40;99.90
24162;DHT22;12318;51.262;7.066;2023-06-19T06:36:21;20.50;99.90
24162;DHT22;12318;51.262;7.066;2023-06-19T06:38:47;20.60;99.90
24162;DHT22;12318;51.262;7.066;2023-06-19T06:41:13;20.60;99.90
24162;DHT22;12318;51.262;7.066;2023-06-19T06:43:40;20.70;99.90
24162;DHT22;12318;51.262;7.066;2023-06-19T06:46:09;21.00;99.90
24162;DHT22;12318;51.262;7.066;2023-06-19T06:48:36;21.00;99.90
24162;DHT22;12318;51.262;7.066;2023-06-19T06:51:01;20.90;99.90
24162;DHT22;12318;51.262;7.066;2023-06-19T06:53:28;21.00;99.90
24162;DHT22;12318;51.262;7.066;2023-06-19T06:55:55;21.30;99.90
24162;DHT22;12318;51.262;7.066;2023-06-19T06:58:21;21.50;99.90
24162;DHT22;12318;51.262;7.066;2023-06-19T07:00:47;21.60;99.50
24162;DHT22;12318;51.262;7.066;2023-06-19T07:03:13;21.40;97.60
24162;DHT22;12318;51.262;7.066;2023-06-19T07:05:39;21.30;98.70
24162;DHT22;12318;51.262;7.066;2023-06-19T07:08:05;21.20;98.90
24162;DHT22;12318;51.262;7.066;2023-06-19T07:10:31;21.10;99.30
24162;DHT22;12318;51.262;7.066;2023-06-19T07:12:56;21.00;99.10
24162;DHT22;12318;51.262;7.066;2023-06-19T07:15:23;20.90;99.90
24162;DHT22;12318;51.262;7.066;2023-06-19T07:17:48;20.80;99.90
24162;DHT22;12318;51.262;7.066;2023-06-19T07:20:14;20.70;99.90
24162;DHT22;12318;51.262;7.066;2023-06-19T07:22:41;20.80;99.90
24162;DHT22;12318;51.262;7.066;2023-06-19T07:25:09;20.90;99.90
24162;DHT22;12318;51.262;7.066;2023-06-19T07:27:35;20.90;99.90
24162;DHT22;12318;51.262;7.066;2023-06-19T07:30:01;21.10;99.90
24162;DHT22;12318;51.262;7.066;2023-06-19T07:32:27;21.20;99.60
24162;DHT22;12318;51.262;7.066;2023-06-19T07:34:53;21.10;99.90
24162;DHT22;12318;51.262;7.066;2023-06-19T07:37:19;21.00;99.60
24162;DHT22;12318;51.262;7.066;2023-06-19T07:39:47;20.90;99.90
24162;DHT22;12318;51.262;7.066;2023-06-19T07:42:14;21.00;99.90
24162;DHT22;12318;51.262;7.066;2023-06-19T07:44:40;21.10;99.90
24162;DHT22;12318;51.262;7.066;2023-06-19T07:47:08;21.10;99.90
24162;DHT22;12318;51.262;7.066;2023-06-19T07:49:34;21.40;99.90
24162;DHT22;12318;51.262;7.066;2023-06-19T07:52:00;21.70;99.80
24162;DHT22;12318;51.262;7.066;2023-06-19T07:54:26;21.70;99.30
24162;DHT22;12318;51.262;7.066;2023-06-19T07:56:52;21.80;98.90
24162;DHT22;12318;51.262;7.066;2023-06-19T07:59:18;21.80;97.80
24162;DHT22;12318;51.262;7.066;2023-06-19T08:01:44;21.90;97.90
24162;DHT22;12318;51.262;7.066;2023-06-19T08:04:10;21.80;97.70
24162;DHT22;12318;51.262;7.066;2023-06-19T08:06:36;21.60;97.70
24162;DHT22;12318;51.262;7.066;2023-06-19T08:09:02;21.50;98.40
24162;DHT22;12318;51.262;7.066;2023-06-19T08:11:28;21.40;98.90
24162;DHT22;12318;51.262;7.066;2023-06-19T08:13:54;21.30;99.80
24162;DHT22;12318;51.262;7.066;2023-06-19T08:16:20;20.90;99.90
24162;DHT22;12318;51.262;7.066;2023-06-19T08:19:14;20.80;99.90
24162;DHT22;12318;51.262;7.066;2023-06-19T08:21:44;20.70;99.90
24162;DHT22;12318;51.262;7.066;2023-06-19T08:24:10;20.60;99.90
24162;DHT22;12318;51.262;7.066;2023-06-19T08:26:44;20.50;99.90
24162;DHT22;12318;51.262;7.066;2023-06-19T08:29:22;20.50;99.90
24162;DHT22;12318;51.262;7.066;2023-06-19T08:32:01;20.60;99.90
24162;DHT22;12318;51.262;7.066;2023-06-19T08:34:28;20.70;99.90
24162;DHT22;12318;51.262;7.066;2023-06-19T08:36:53;20.70;99.90
24162;DHT22;12318;51.262;7.066;2023-06-19T08:40:05;20.70;99.90
24162;DHT22;12318;51.262;7.066;2023-06-19T08:42:50;20.90;99.90
24162;DHT22;12318;51.262;7.066;2023-06-19T08:45:17;21.20;99.90
24162;DHT22;12318;51.262;7.066;2023-06-19T08:47:47;21.60;99.90
24162;DHT22;12318;51.262;7.066;2023-06-19T08:50:13;21.70;99.90
24162;DHT22;12318;51.262;7.066;2023-06-19T08:52:39;21.80;99.50
24162;DHT22;12318;51.262;7.066;2023-06-19T08:55:05;22.00;97.30
24162;DHT22;12318;51.262;7.066;2023-06-19T08:57:38;22.20;96.30
24162;DHT22;12318;51.262;7.066;2023-06-19T09:00:05;22.30;95.90
24162;DHT22;12318;51.262;7.066;2023-06-19T09:02:48;22.60;94.70
24162;DHT22;12318;51.262;7.066;2023-06-19T09:05:19;22.60;92.30
24162;DHT22;12318;51.262;7.066;2023-06-19T09:07:54;22.80;92.80
24162;DHT22;12318;51.262;7.066;2023-06-19T09:10:20;22.90;91.50
24162;DHT22;12318;51.262;7.066;2023-06-19T09:13:00;22.80;88.70
24162;DHT22;12318;51.262;7.066;2023-06-19T09:15:32;22.60;90.60
24162;DHT22;12318;51.262;7.066;2023-06-19T09:18:16;22.50;90.80
24162;DHT22;12318;51.262;7.066;2023-06-19T09:20:42;22.50;91.10
24162;DHT22;12318;51.262;7.066;2023-06-19T09:23:13;22.80;90.20
24162;DHT22;12318;51.262;7.066;2023-06-19T09:25:50;23.10;86.80
24162;DHT22;12318;51.262;7.066;2023-06-19T09:28:24;23.30;86.60
24162;DHT22;12318;51.262;7.066;2023-06-19T09:31:05;23.30;85.60
24162;DHT22;12318;51.262;7.066;2023-06-19T09:33:42;23.30;83.10
24162;DHT22;12318;51.262;7.066;2023-06-19T09:39:39;23.30;80.80
24162;DHT22;12318;51.262;7.066;2023-06-19T09:42:35;23.40;78.30
24162;DHT22;12318;51.262;7.066;2023-06-19T09:45:04;23.10;80.10
24162;DHT22;12318;51.262;7.066;2023-06-19T09:47:43;23.30;81.40
24162;DHT22;12318;51.262;7.066;2023-06-19T09:50:12;23.40;79.50
24162;DHT22;12318;51.262;7.066;2023-06-19T09:52:39;23.20;79.70
24162;DHT22;12318;51.262;7.066;2023-06-19T09:55:06;23.20;80.30
24162;DHT22;12318;51.262;7.066;2023-06-19T09:57:34;23.10;81.70
24162;DHT22;12318;51.262;7.066;2023-06-19T10:00:05;23.40;81.20
24162;DHT22;12318;51.262;7.066;2023-06-19T10:02:42;23.70;79.20
24162;DHT22;12318;51.262;7.066;2023-06-19T10:05:09;24.10;74.40
24162;DHT22;12318;51.262;7.066;2023-06-19T10:07:38;24.40;73.10
24162;DHT22;12318;51.262;7.066;2023-06-19T10:10:23;24.30;66.90
24162;DHT22;12318;51.262;7.066;2023-06-19T10:12:49;24.20;66.30
24162;DHT22;12318;51.262;7.066;2023-06-19T10:15:16;24.30;68.10
24162;DHT22;12318;51.262;7.066;2023-06-19T10:20:28;24.50;67.20
24162;DHT22;12318;51.262;7.066;2023-06-19T10:25:35;24.50;63.60
24162;DHT22;12318;51.262;7.066;2023-06-19T10:28:01;24.60;65.00
24162;DHT22;12318;51.262;7.066;2023-06-19T10:30:34;24.80;65.40
24162;DHT22;12318;51.262;7.066;2023-06-19T10:33:00;24.70;67.20
24162;DHT22;12318;51.262;7.066;2023-06-19T10:35:28;24.80;64.40
24162;DHT22;12318;51.262;7.066;2023-06-19T10:37:54;25.10;62.60
24162;DHT22;12318;51.262;7.066;2023-06-19T10:40:20;24.80;67.00
24162;DHT22;12318;51.262;7.066;2023-06-19T10:42:46;24.90;64.60
24162;DHT22;12318;51.262;7.066;2023-06-19T10:45:14;24.50;63.80
24162;DHT22;12318;51.262;7.066;2023-06-19T10:47:43;24.50;65.40
24162;DHT22;12318;51.262;7.066;2023-06-19T10:50:13;24.70;63.90
24162;DHT22;12318;51.262;7.066;2023-06-19T10:52:41;24.80;57.50
24162;DHT22;12318;51.262;7.066;2023-06-19T10:55:08;25.00;55.80
24162;DHT22;12318;51.262;7.066;2023-06-19T10:57:34;24.90;55.40
24162;DHT22;12318;51.262;7.066;2023-06-19T10:59:59;24.90;53.70
24162;DHT22;12318;51.262;7.066;2023-06-19T11:02:25;25.00;56.10
24162;DHT22;12318;51.262;7.066;2023-06-19T11:04:55;25.50;55.20
24162;DHT22;12318;51.262;7.066;2023-06-19T11:07:22;25.40;55.10
24162;DHT22;12318;51.262;7.066;2023-06-19T11:09:49;25.30;55.80
24162;DHT22;12318;51.262;7.066;2023-06-19T11:12:21;25.30;55.70
24162;DHT22;12318;51.262;7.066;2023-06-19T11:14:50;25.20;56.80
24162;DHT22;12318;51.262;7.066;2023-06-19T11:17:17;25.50;54.10
24162;DHT22;12318;51.262;7.066;2023-06-19T11:19:47;25.70;55.60
24162;DHT22;12318;51.262;7.066;2023-06-19T11:22:13;25.40;55.40
24162;DHT22;12318;51.262;7.066;2023-06-19T11:24:46;25.40;53.50
24162;DHT22;12318;51.262;7.066;2023-06-19T11:27:20;25.50;52.70
24162;DHT22;12318;51.262;7.066;2023-06-19T11:29:56;25.70;52.30
24162;DHT22;12318;51.262;7.066;2023-06-19T11:32:29;26.00;50.30
24162;DHT22;12318;51.262;7.066;2023-06-19T11:34:56;26.20;50.80
24162;DHT22;12318;51.262;7.066;2023-06-19T11:37:23;26.20;50.30
24162;DHT22;12318;51.262;7.066;2023-06-19T11:39:51;25.90;51.80
24162;DHT22;12318;51.262;7.066;2023-06-19T11:42:18;25.30;51.90
24162;DHT22;12318;51.262;7.066;2023-06-19T11:45:00;25.60;53.30
24162;DHT22;12318;51.262;7.066;2023-06-19T11:47:30;25.70;48.70
24162;DHT22;12318;51.262;7.066;2023-06-19T11:49:57;25.40;48.10
24162;DHT22;12318;51.262;7.066;2023-06-19T11:52:23;25.50;47.90
24162;DHT22;12318;51.262;7.066;2023-06-19T11:54:49;25.60;47.70
24162;DHT22;12318;51.262;7.066;2023-06-19T11:57:15;25.50;50.60
24162;DHT22;12318;51.262;7.066;2023-06-19T11:59:41;25.60;49.40
24162;DHT22;12318;51.262;7.066;2023-06-19T12:02:08;25.40;49.50
24162;DHT22;12318;51.262;7.066;2023-06-19T12:04:35;25.50;48.70
24162;DHT22;12318;51.262;7.066;2023-06-19T12:07:01;25.60;47.80
24162;DHT22;12318;51.262;7.066;2023-06-19T12:09:27;26.00;47.40
24162;DHT22;12318;51.262;7.066;2023-06-19T12:11:56;26.10;43.80
24162;DHT22;12318;51.262;7.066;2023-06-19T12:14:21;26.30;43.10
24162;DHT22;12318;51.262;7.066;2023-06-19T12:16:49;26.20;44.20
24162;DHT22;12318;51.262;7.066;2023-06-19T12:19:15;25.70;45.60
24162;DHT22;12318;51.262;7.066;2023-06-19T12:21:42;25.80;46.10
24162;DHT22;12318;51.262;7.066;2023-06-19T12:24:09;25.70;45.00
24162;DHT22;12318;51.262;7.066;2023-06-19T12:26:35;25.50;46.90
24162;DHT22;12318;51.262;7.066;2023-06-19T12:29:06;25.30;47.90
24162;DHT22;12318;51.262;7.066;2023-06-19T12:31:33;25.50;45.40
24162;DHT22;12318;51.262;7.066;2023-06-19T12:33:59;25.40;46.90
24162;DHT22;12318;51.262;7.066;2023-06-19T12:36:25;25.50;48.10
24162;DHT22;12318;51.262;7.066;2023-06-19T12:38:52;25.80;47.30
24162;DHT22;12318;51.262;7.066;2023-06-19T12:41:20;25.80;46.80
24162;DHT22;12318;51.262;7.066;2023-06-19T12:43:46;25.80;47.30
24162;DHT22;12318;51.262;7.066;2023-06-19T12:46:12;25.60;48.90
24162;DHT22;12318;51.262;7.066;2023-06-19T12:48:43;25.70;47.10
24162;DHT22;12318;51.262;7.066;2023-06-19T12:51:09;26.00;46.90
24162;DHT22;12318;51.262;7.066;2023-06-19T12:53:34;25.90;44.50
24162;DHT22;12318;51.262;7.066;2023-06-19T12:56:00;26.20;43.80
24162;DHT22;12318;51.262;7.066;2023-06-19T12:58:26;26.30;43.70
24162;DHT22;12318;51.262;7.066;2023-06-19T13:00:53;26.40;46.20
24162;DHT22;12318;51.262;7.066;2023-06-19T13:03:19;26.40;44.10
24162;DHT22;12318;51.262;7.066;2023-06-19T13:05:48;25.90;40.90
24162;DHT22;12318;51.262;7.066;2023-06-19T13:08:15;25.80;41.00
24162;DHT22;12318;51.262;7.066;2023-06-19T13:10:40;25.80;45.00
24162;DHT22;12318;51.262;7.066;2023-06-19T13:13:06;26.00;43.30
24162;DHT22;12318;51.262;7.066;2023-06-19T13:15:32;26.30;42.70
24162;DHT22;12318;51.262;7.066;2023-06-19T13:18:18;26.30;44.00
24162;DHT22;12318;51.262;7.066;2023-06-19T13:20:50;26.20;40.80
24162;DHT22;12318;51.262;7.066;2023-06-19T13:23:25;26.40;40.10
24162;DHT22;12318;51.262;7.066;2023-06-19T13:26:00;26.70;43.00
24162;DHT22;12318;51.262;7.066;2023-06-19T13:28:26;26.50;41.70
24162;DHT22;12318;51.262;7.066;2023-06-19T13:30:52;26.70;39.10
24162;DHT22;12318;51.262;7.066;2023-06-19T13:33:18;26.50;37.80
24162;DHT22;12318;51.262;7.066;2023-06-19T13:35:44;26.70;39.10
24162;DHT22;12318;51.262;7.066;2023-06-19T13:38:09;26.80;41.10
24162;DHT22;12318;51.262;7.066;2023-06-19T13:40:36;26.90;41.20
24162;DHT22;12318;51.262;7.066;2023-06-19T13:43:02;26.90;37.90
24162;DHT22;12318;51.262;7.066;2023-06-19T13:45:29;26.50;36.80
24162;DHT22;12318;51.262;7.066;2023-06-19T13:47:56;26.60;38.20
24162;DHT22;12318;51.262;7.066;2023-06-19T13:50:23;26.50;37.40
24162;DHT22;12318;51.262;7.066;2023-06-19T13:52:49;25.80;39.20
24162;DHT22;12318;51.262;7.066;2023-06-19T13:55:15;25.90;40.90
24162;DHT22;12318;51.262;7.066;2023-06-19T13:57:42;26.30;39.50
24162;DHT22;12318;51.262;7.066;2023-06-19T14:00:09;26.40;38.20
24162;DHT22;12318;51.262;7.066;2023-06-19T14:02:37;26.30;39.40
24162;DHT22;12318;51.262;7.066;2023-06-19T14:05:06;26.20;41.90
24162;DHT22;12318;51.262;7.066;2023-06-19T14:07:33;26.20;40.80
24162;DHT22;12318;51.262;7.066;2023-06-19T14:10:01;26.30;38.70
24162;DHT22;12318;51.262;7.066;2023-06-19T14:12:28;26.10;38.20
24162;DHT22;12318;51.262;7.066;2023-06-19T14:14:53;26.20;40.90
24162;DHT22;12318;51.262;7.066;2023-06-19T14:17:19;26.40;37.00
24162;DHT22;12318;51.262;7.066;2023-06-19T14:19:45;26.30;38.10
24162;DHT22;12318;51.262;7.066;2023-06-19T14:22:10;26.50;40.20
24162;DHT22;12318;51.262;7.066;2023-06-19T14:24:36;26.60;38.30
24162;DHT22;12318;51.262;7.066;2023-06-19T14:27:02;26.50;35.80
24162;DHT22;12318;51.262;7.066;2023-06-19T14:29:27;26.30;40.30
24162;DHT22;12318;51.262;7.066;2023-06-19T14:31:53;26.50;38.20
24162;DHT22;12318;51.262;7.066;2023-06-19T14:34:19;26.70;36.20
24162;DHT22;12318;51.262;7.066;2023-06-19T14:36:46;26.70;35.40
24162;DHT22;12318;51.262;7.066;2023-06-19T14:39:11;26.80;37.20
24162;DHT22;12318;51.262;7.066;2023-06-19T14:41:38;26.80;34.30
24162;DHT22;12318;51.262;7.066;2023-06-19T14:44:04;27.00;33.60
24162;DHT22;12318;51.262;7.066;2023-06-19T14:46:31;27.10;32.00
24162;DHT22;12318;51.262;7.066;2023-06-19T14:48:57;27.00;32.10
24162;DHT22;12318;51.262;7.066;2023-06-19T14:51:27;26.90;29.90
24162;DHT22;12318;51.262;7.066;2023-06-19T14:53:52;27.10;32.30
24162;DHT22;12318;51.262;7.066;2023-06-19T14:56:18;27.20;31.60
24162;DHT22;12318;51.262;7.066;2023-06-19T14:58:44;26.80;31.10
24162;DHT22;12318;51.262;7.066;2023-06-19T15:01:10;26.70;33.20
24162;DHT22;12318;51.262;7.066;2023-06-19T15:03:36;26.80;35.20
24162;DHT22;12318;51.262;7.066;2023-06-19T15:06:03;27.60;34.40
24162;DHT22;12318;51.262;7.066;2023-06-19T15:08:29;28.40;33.00
24162;DHT22;12318;51.262;7.066;2023-06-19T15:10:56;28.50;28.90
24162;DHT22;12318;51.262;7.066;2023-06-19T15:13:23;28.80;31.20
24162;DHT22;12318;51.262;7.066;2023-06-19T15:15:49;29.00;28.00
24162;DHT22;12318;51.262;7.066;2023-06-19T15:18:16;28.50;26.80
24162;DHT22;12318;51.262;7.066;2023-06-19T15:20:42;28.40;28.70
24162;DHT22;12318;51.262;7.066;2023-06-19T15:23:08;28.40;26.60
24162;DHT22;12318;51.262;7.066;2023-06-19T15:25:34;28.00;28.80
24162;DHT22;12318;51.262;7.066;2023-06-19T15:28:00;28.20;27.20
24162;DHT22;12318;51.262;7.066;2023-06-19T15:30:26;28.40;27.80
24162;DHT22;12318;51.262;7.066;2023-06-19T15:32:52;28.80;26.60
24162;DHT22;12318;51.262;7.066;2023-06-19T15:35:18;28.60;26.80
24162;DHT22;12318;51.262;7.066;2023-06-19T15:37:44;29.00;26.40
24162;DHT22;12318;51.262;7.066;2023-06-19T15:40:10;29.00;26.00
24162;DHT22;12318;51.262;7.066;2023-06-19T15:42:36;28.70;26.50
24162;DHT22;12318;51.262;7.066;2023-06-19T15:45:03;28.40;24.20
24162;DHT22;12318;51.262;7.066;2023-06-19T15:47:28;28.00;25.60